Wetterdaten: Woche 05.05.14 - 11.05.14 (KW19)
Datum Zeit Temp. Aussen +5cm Feuchte Auss Luftdruck Regen Sonnenschein Regendauer UV Solar Windben
05.05.2014 00:00 8,0 C 5,9 C 78 % 1020,7 hPa 0,0 l/m 0,00 h 0,00 h 0,0 UV-I 0 W/m 0,0 km/h (0 Bft)
05.05.2014 01:00 7,3 C 5,1 C 78 % 1020,3 hPa 0,0 l/m 0,00 h 0,00 h 0,0 UV-I 0 W/m 0,0 km/h (0 Bft)
05.05.2014 02:00 6,0 C 4,1 C 84 % 1019,7 hPa 0,0 l/m 0,00 h 0,00 h 0,0 UV-I 0 W/m 0,0 km/h (0 Bft)
05.05.2014 03:00 5,2 C 3,4 C 87 % 1019,3 hPa 0,0 l/m 0,00 h 0,00 h 0,0 UV-I 0 W/m 0,0 km/h (0 Bft)
05.05.2014 04:00 4,4 C 2,8 C 90 % 1019,3 hPa 0,0 l/m 0,00 h 0,00 h 0,0 UV-I 0 W/m 0,0 km/h (0 Bft)
05.05.2014 05:00 3,8 C 2,3 C 92 % 1019,1 hPa 0,0 l/m 0,00 h 0,00 h 0,0 UV-I 5 W/m 0,0 km/h (0 Bft)
05.05.2014 06:00 3,5 C 2,3 C 94 % 1019,0 hPa 0,0 l/m 0,00 h 0,00 h 0,0 UV-I 18 W/m 0,0 km/h (0 Bft)
05.05.2014 07:00 5,1 C 3,9 C 93 % 1019,0 hPa 0,0 l/m 0,00 h 0,00 h 0,0 UV-I 49 W/m 0,7 km/h (0 Bft)
05.05.2014 08:00 8,1 C 6,9 C 83 % 1018,7 hPa 0,0 l/m 0,73 h 0,00 h 0,0 UV-I 251 W/m 4,9 km/h (1 Bft)
05.05.2014 09:00 10,9 C 10,7 C 76 % 1018,2 hPa 0,0 l/m 0,87 h 0,00 h 0,7 UV-I 382 W/m 9,3 km/h (2 Bft)
05.05.2014 10:00 13,0 C 14,3 C 69 % 1017,8 hPa 0,0 l/m 0,97 h 0,00 h 1,2 UV-I 448 W/m 8,1 km/h (2 Bft)
05.05.2014 11:00 14,5 C 15,3 C 64 % 1017,4 hPa 0,0 l/m 0,93 h 0,00 h 2,0 UV-I 532 W/m 9,4 km/h (2 Bft)
05.05.2014 12:00 15,7 C 17,2 C 60 % 1017,0 hPa 0,0 l/m 0,97 h 0,00 h 2,9 UV-I 647 W/m 6,7 km/h (2 Bft)
05.05.2014 13:00 17,0 C 17,3 C 55 % 1016,3 hPa 0,0 l/m 0,97 h 0,00 h 2,4 UV-I 659 W/m 7,5 km/h (2 Bft)
05.05.2014 14:00 18,0 C 17,8 C 51 % 1015,6 hPa 0,0 l/m 0,97 h 0,00 h 3,6 UV-I 749 W/m 7,6 km/h (2 Bft)
05.05.2014 15:00 18,9 C 24,7 C 49 % 1014,9 hPa 0,0 l/m 0,97 h 0,00 h 2,8 UV-I 679 W/m 7,9 km/h (2 Bft)
05.05.2014 16:00 19,7 C 19,2 C 48 % 1014,1 hPa 0,0 l/m 0,97 h 0,00 h 2,0 UV-I 563 W/m 6,8 km/h (2 Bft)
05.05.2014 17:00 19,8 C 18,1 C 49 % 1013,4 hPa 0,0 l/m 0,97 h 0,00 h 1,1 UV-I 446 W/m 9,1 km/h (2 Bft)
05.05.2014 18:00 19,4 C 17,4 C 51 % 1012,8 hPa 0,0 l/m 0,30 h 0,00 h 0,5 UV-I 162 W/m 8,4 km/h (2 Bft)
05.05.2014 19:00 18,8 C 16,4 C 52 % 1012,4 hPa 0,0 l/m 0,00 h 0,00 h 0,0 UV-I 70 W/m 0,8 km/h (0 Bft)
05.05.2014 20:00 16,8 C 13,6 C 62 % 1012,3 hPa 0,0 l/m 0,00 h 0,00 h 0,0 UV-I 20 W/m 0,0 km/h (0 Bft)
05.05.2014 21:00 14,8 C 11,3 C 67 % 1011,7 hPa 0,0 l/m 0,00 h 0,00 h 0,0 UV-I 0 W/m 0,0 km/h (0 Bft)
05.05.2014 22:00 14,0 C 10,5 C 69 % 1011,3 hPa 0,0 l/m 0,00 h 0,00 h 0,0 UV-I 0 W/m 0,0 km/h (0 Bft)
05.05.2014 23:00 13,7 C 11,2 C 68 % 1011,1 hPa 0,0 l/m 0,00 h 0,00 h 0,0 UV-I 0 W/m 7,7 km/h (2 Bft)
06.05.2014 00:00 13,1 C 11,2 C 70 % 1011,1 hPa 0,0 l/m 0,00 h 0,00 h 0,0 UV-I 0 W/m 9,1 km/h (2 Bft)
06.05.2014 01:00 12,6 C 10,9 C 72 % 1010,9 hPa 0,0 l/m 0,00 h 0,00 h 0,0 UV-I 0 W/m 6,0 km/h (2 Bft)
06.05.2014 02:00 12,2 C 10,6 C 74 % 1010,2 hPa 0,0 l/m 0,00 h 0,00 h 0,0 UV-I 0 W/m 6,8 km/h (2 Bft)
06.05.2014 03:00 12,0 C 10,6 C 73 % 1009,7 hPa 0,0 l/m 0,00 h 0,00 h 0,0 UV-I 0 W/m 11,4 km/h (2 Bft)
06.05.2014 04:00 11,4 C 9,8 C 74 % 1009,0 hPa 0,0 l/m 0,00 h 0,00 h 0,0 UV-I 0 W/m 10,0 km/h (2 Bft)
06.05.2014 05:00 10,9 C 9,4 C 74 % 1008,5 hPa 0,0 l/m 0,00 h 0,00 h 0,0 UV-I 0 W/m 11,2 km/h (2 Bft)
06.05.2014 06:00 10,9 C 9,7 C 75 % 1007,9 hPa 0,0 l/m 0,00 h 0,00 h 0,0 UV-I 24 W/m 12,2 km/h (3 Bft)
06.05.2014 07:00 11,6 C 10,7 C 73 % 1007,9 hPa 0,0 l/m 0,00 h 0,00 h 0,0 UV-I 77 W/m 12,6 km/h (3 Bft)
06.05.2014 08:00 12,7 C 12,2 C 73 % 1007,8 hPa 0,0 l/m 0,00 h 0,00 h 0,0 UV-I 154 W/m 10,2 km/h (2 Bft)
06.05.2014 09:00 14,1 C 14,2 C 74 % 1007,8 hPa 0,0 l/m 0,30 h 0,00 h 0,8 UV-I 268 W/m 8,3 km/h (2 Bft)
06.05.2014 10:00 17,6 C 17,5 C 65 % 1007,8 hPa 0,0 l/m 0,23 h 0,00 h 0,7 UV-I 291 W/m 9,5 km/h (2 Bft)
06.05.2014 11:00 18,3 C 17,7 C 64 % 1008,1 hPa 0,0 l/m 0,07 h 0,00 h 0,9 UV-I 270 W/m 11,0 km/h (2 Bft)
06.05.2014 12:00 17,0 C 14,6 C 70 % 1008,6 hPa 0,0 l/m 0,00 h 0,57 h 0,0 UV-I 103 W/m 7,5 km/h (2 Bft)
06.05.2014 13:00 16,7 C 15,3 C 76 % 1009,0 hPa 0,0 l/m 0,00 h 0,73 h 0,8 UV-I 229 W/m 11,2 km/h (2 Bft)
06.05.2014 14:00 17,4 C 17,3 C 75 % 1008,6 hPa 0,0 l/m 0,00 h 0,07 h 1,1 UV-I 276 W/m 12,2 km/h (3 Bft)
06.05.2014 15:00 18,3 C 17,8 C 69 % 1008,1 hPa 0,0 l/m 0,10 h 0,00 h 1,6 UV-I 280 W/m 15,3 km/h (3 Bft)
06.05.2014 16:00 19,2 C 18,6 C 67 % 1007,7 hPa 0,0 l/m 0,40 h 0,00 h 1,4 UV-I 364 W/m 15,6 km/h (3 Bft)
06.05.2014 17:00 20,4 C 19,2 C 62 % 1007,2 hPa 0,0 l/m 0,83 h 0,00 h 1,0 UV-I 485 W/m 13,4 km/h (3 Bft)
06.05.2014 18:00 19,9 C 18,3 C 62 % 1006,9 hPa 0,0 l/m 0,20 h 0,03 h 0,6 UV-I 142 W/m 9,7 km/h (2 Bft)
06.05.2014 19:00 16,8 C 14,2 C 81 % 1007,2 hPa 0,2 l/m 0,03 h 0,43 h 0,0 UV-I 54 W/m 5,9 km/h (2 Bft)
06.05.2014 20:00 15,3 C 13,3 C 91 % 1007,1 hPa 0,0 l/m 0,00 h 0,00 h 0,0 UV-I 11 W/m 0,5 km/h (0 Bft)
06.05.2014 21:00 14,5 C 12,9 C 94 % 1007,0 hPa 1,8 l/m 0,00 h 0,47 h 0,0 UV-I 0 W/m 1,8 km/h (1 Bft)
06.05.2014 22:00 13,7 C 12,2 C 96 % 1006,7 hPa 1,6 l/m 0,00 h 0,83 h 0,0 UV-I 0 W/m 3,6 km/h (1 Bft)
06.05.2014 23:00 13,2 C 11,9 C 97 % 1006,9 hPa 1,8 l/m 0,00 h 0,93 h 0,0 UV-I 0 W/m 1,9 km/h (1 Bft)
07.05.2014 00:00 12,7 C 11,6 C 97 % 1006,8 hPa 0,0 l/m 0,00 h 0,43 h 0,0 UV-I 0 W/m 2,2 km/h (1 Bft)
07.05.2014 01:00 12,3 C 11,1 C 98 % 1006,8 hPa 0,0 l/m 0,00 h 0,03 h 0,0 UV-I 0 W/m 2,8 km/h (1 Bft)
07.05.2014 02:00 12,2 C 10,8 C 98 % 1007,0 hPa 0,0 l/m 0,00 h 0,00 h 0,0 UV-I 0 W/m 2,7 km/h (1 Bft)
07.05.2014 03:00 12,0 C 10,6 C 98 % 1007,2 hPa 0,0 l/m 0,00 h 0,00 h 0,0 UV-I 0 W/m 3,8 km/h (1 Bft)
07.05.2014 04:00 11,5 C 10,0 C 97 % 1007,6 hPa 0,0 l/m 0,00 h 0,00 h 0,0 UV-I 0 W/m 8,2 km/h (2 Bft)
07.05.2014 05:00 10,7 C 9,4 C 95 % 1008,1 hPa 0,0 l/m 0,00 h 0,00 h 0,0 UV-I 0 W/m 8,8 km/h (2 Bft)
07.05.2014 06:00 10,0 C 8,7 C 94 % 1008,7 hPa 0,0 l/m 0,00 h 0,00 h 0,0 UV-I 17 W/m 10,8 km/h (2 Bft)
07.05.2014 07:00 10,2 C 9,2 C 91 % 1009,3 hPa 0,0 l/m 0,00 h 0,00 h 0,0 UV-I 76 W/m 13,2 km/h (3 Bft)
07.05.2014 08:00 11,0 C 10,3 C 90 % 1009,7 hPa 0,0 l/m 0,07 h 0,00 h 0,0 UV-I 146 W/m 13,1 km/h (3 Bft)
07.05.2014 09:00 11,4 C 11,0 C 89 % 1010,2 hPa 0,0 l/m 0,03 h 0,00 h 1,0 UV-I 153 W/m 11,9 km/h (2 Bft)
07.05.2014 10:00 13,1 C 13,9 C 83 % 1010,4 hPa 0,0 l/m 0,37 h 0,00 h 1,2 UV-I 403 W/m 16,0 km/h (3 Bft)
07.05.2014 11:00 14,3 C 14,4 C 78 % 1010,5 hPa 0,0 l/m 0,30 h 0,07 h 1,6 UV-I 413 W/m 15,9 km/h (3 Bft)
07.05.2014 12:00 14,2 C 14,1 C 80 % 1010,6 hPa 0,0 l/m 0,43 h 0,27 h 2,4 UV-I 476 W/m 14,0 km/h (3 Bft)
07.05.2014 13:00 15,8 C 16,0 C 73 % 1010,5 hPa 0,0 l/m 0,33 h 0,00 h 1,8 UV-I 539 W/m 16,9 km/h (3 Bft)
07.05.2014 14:00 14,6 C 13,6 C 78 % 1010,7 hPa 1,6 l/m 0,03 h 0,53 h 1,7 UV-I 186 W/m 10,1 km/h (2 Bft)
07.05.2014 15:00 13,5 C 12,2 C 87 % 1010,7 hPa 0,0 l/m 0,13 h 0,00 h 1,0 UV-I 288 W/m 16,7 km/h (3 Bft)
07.05.2014 16:00 14,6 C 13,5 C 79 % 1010,8 hPa 0,0 l/m 0,37 h 0,00 h 1,3 UV-I 401 W/m 16,0 km/h (3 Bft)
07.05.2014 17:00 14,9 C 14,0 C 76 % 1010,8 hPa 0,0 l/m 0,20 h 0,10 h 1,2 UV-I 233 W/m 5,5 km/h (1 Bft)
07.05.2014 18:00 15,3 C 14,0 C 75 % 1010,5 hPa 0,0 l/m 0,30 h 0,00 h 0,0 UV-I 175 W/m 2,9 km/h (1 Bft)
07.05.2014 19:00 15,0 C 13,3 C 70 % 1010,7 hPa 0,0 l/m 0,00 h 0,00 h 0,0 UV-I 47 W/m 6,5 km/h (2 Bft)
07.05.2014 20:00 14,5 C 12,6 C 69 % 1011,2 hPa 0,0 l/m 0,00 h 0,00 h 0,0 UV-I 25 W/m 7,5 km/h (2 Bft)
07.05.2014 21:00 13,3 C 11,3 C 69 % 1011,6 hPa 0,0 l/m 0,00 h 0,00 h 0,0 UV-I 5 W/m 3,6 km/h (1 Bft)
07.05.2014 22:00 11,7 C 9,7 C 75 % 1011,9 hPa 0,0 l/m 0,00 h 0,00 h 0,0 UV-I 0 W/m 1,4 km/h (1 Bft)
07.05.2014 23:00 11,2 C 9,4 C 77 % 1012,1 hPa 0,0 l/m 0,00 h 0,00 h 0,0 UV-I 0 W/m 4,5 km/h (1 Bft)
08.05.2014 00:00 11,0 C 9,4 C 78 % 1012,2 hPa 0,0 l/m 0,00 h 0,00 h 0,0 UV-I 0 W/m 6,3 km/h (2 Bft)
08.05.2014 01:00 11,0 C 9,6 C 81 % 1012,1 hPa 0,0 l/m 0,00 h 0,00 h 0,0 UV-I 0 W/m 6,9 km/h (2 Bft)
08.05.2014 02:00 11,2 C 10,0 C 81 % 1012,0 hPa 0,0 l/m 0,00 h 0,00 h 0,0 UV-I 0 W/m 13,0 km/h (3 Bft)
08.05.2014 03:00 11,1 C 9,8 C 83 % 1012,0 hPa 0,0 l/m 0,00 h 0,00 h 0,0 UV-I 0 W/m 10,9 km/h (2 Bft)
08.05.2014 04:00 11,0 C 9,9 C 84 % 1012,0 hPa 0,0 l/m 0,00 h 0,00 h 0,0 UV-I 0 W/m 10,4 km/h (2 Bft)
08.05.2014 05:00 10,8 C 9,5 C 84 % 1012,0 hPa 0,0 l/m 0,00 h 0,00 h 0,0 UV-I 0 W/m 12,3 km/h (3 Bft)
08.05.2014 06:00 10,7 C 9,4 C 86 % 1012,3 hPa 0,0 l/m 0,00 h 0,00 h 0,0 UV-I 10 W/m 8,5 km/h (2 Bft)
08.05.2014 07:00 10,9 C 10,1 C 86 % 1012,6 hPa 0,0 l/m 0,00 h 0,00 h 0,0 UV-I 72 W/m 11,9 km/h (2 Bft)
08.05.2014 08:00 11,4 C 10,9 C 84 % 1012,6 hPa 0,0 l/m 0,00 h 0,00 h 0,0 UV-I 140 W/m 12,3 km/h (3 Bft)
08.05.2014 09:00 12,0 C 11,5 C 82 % 1012,6 hPa 0,0 l/m 0,03 h 0,00 h 0,0 UV-I 200 W/m 16,6 km/h (3 Bft)
08.05.2014 10:00 12,7 C 12,6 C 78 % 1012,7 hPa 0,0 l/m 0,10 h 0,00 h 0,8 UV-I 287 W/m 18,4 km/h (3 Bft)
08.05.2014 11:00 13,0 C 13,0 C 76 % 1012,7 hPa 0,0 l/m 0,00 h 0,00 h 0,8 UV-I 276 W/m 14,8 km/h (3 Bft)
08.05.2014 12:00 13,5 C 13,7 C 74 % 1012,5 hPa 0,0 l/m 0,13 h 0,00 h 1,5 UV-I 302 W/m 18,1 km/h (3 Bft)
08.05.2014 13:00 13,0 C 12,3 C 76 % 1012,5 hPa 0,0 l/m 0,00 h 0,00 h 0,0 UV-I 135 W/m 14,2 km/h (3 Bft)
08.05.2014 14:00 13,4 C 12,7 C 76 % 1012,1 hPa 0,0 l/m 0,00 h 0,07 h 0,7 UV-I 164 W/m 16,0 km/h (3 Bft)
08.05.2014 15:00 13,1 C 11,4 C 80 % 1011,9 hPa 0,2 l/m 0,00 h 0,63 h 0,0 UV-I 96 W/m 13,7 km/h (3 Bft)
08.05.2014 16:00 12,1 C 10,6 C 89 % 1011,2 hPa 0,6 l/m 0,00 h 0,98 h 0,0 UV-I 149 W/m 9,0 km/h (2 Bft)
08.05.2014 17:00 12,4 C 10,6 C 89 % 1010,3 hPa 0,0 l/m 0,00 h 0,03 h 0,0 UV-I 101 W/m 13,6 km/h (3 Bft)
08.05.2014 18:00 12,0 C 10,4 C 91 % 1009,3 hPa 0,0 l/m 0,00 h 0,43 h 0,0 UV-I 49 W/m 12,0 km/h (2 Bft)
08.05.2014 19:00 11,9 C 10,3 C 93 % 1008,1 hPa 1,6 l/m 0,00 h 0,37 h 0,0 UV-I 18 W/m 13,1 km/h (3 Bft)
08.05.2014 20:00 11,7 C 10,4 C 95 % 1007,5 hPa 3,6 l/m 0,00 h 0,98 h 0,0 UV-I 6 W/m 10,4 km/h (2 Bft)
08.05.2014 21:00 11,8 C 10,6 C 97 % 1006,6 hPa 1,0 l/m 0,00 h 0,88 h 0,0 UV-I 0 W/m 14,1 km/h (3 Bft)
08.05.2014 22:00 12,6 C 11,1 C 97 % 1005,8 hPa 0,2 l/m 0,00 h 0,12 h 0,0 UV-I 0 W/m 19,3 km/h (3 Bft)
08.05.2014 23:00 13,2 C 11,7 C 96 % 1005,9 hPa 0,2 l/m 0,00 h 0,00 h 0,0 UV-I 0 W/m 23,4 km/h (4 Bft)
09.05.2014 00:00 13,3 C 11,7 C 96 % 1006,0 hPa 0,4 l/m 0,00 h 0,60 h 0,0 UV-I 0 W/m 18,3 km/h (3 Bft)
09.05.2014 01:00 13,3 C 11,7 C 97 % 1006,4 hPa 0,4 l/m 0,00 h 0,87 h 0,0 UV-I 0 W/m 16,2 km/h (3 Bft)
09.05.2014 02:00 13,1 C 11,7 C 97 % 1007,0 hPa 0,2 l/m 0,00 h 0,87 h 0,0 UV-I 0 W/m 17,1 km/h (3 Bft)
09.05.2014 03:00 12,8 C 11,2 C 97 % 1008,0 hPa 0,2 l/m 0,00 h 0,53 h 0,0 UV-I 0 W/m 12,7 km/h (3 Bft)
09.05.2014 04:00 12,7 C 11,1 C 96 % 1008,6 hPa 0,0 l/m 0,00 h 0,50 h 0,0 UV-I 0 W/m 13,8 km/h (3 Bft)
09.05.2014 05:00 12,6 C 11,1 C 96 % 1009,0 hPa 0,0 l/m 0,00 h 0,00 h 0,0 UV-I 0 W/m 9,4 km/h (2 Bft)
09.05.2014 06:00 12,6 C 10,8 C 94 % 1009,5 hPa 0,0 l/m 0,00 h 0,00 h 0,0 UV-I 18 W/m 12,0 km/h (2 Bft)
09.05.2014 07:00 12,8 C 11,2 C 93 % 1009,9 hPa 0,0 l/m 0,00 h 0,00 h 0,0 UV-I 60 W/m 8,9 km/h (2 Bft)
09.05.2014 08:00 13,3 C 11,7 C 90 % 1010,5 hPa 0,0 l/m 0,00 h 0,00 h 0,0 UV-I 121 W/m 14,9 km/h (3 Bft)
09.05.2014 09:00 13,4 C 11,9 C 86 % 1010,6 hPa 0,0 l/m 0,03 h 0,00 h 0,0 UV-I 164 W/m 17,8 km/h (3 Bft)
09.05.2014 10:00 13,1 C 12,1 C 85 % 1010,9 hPa 0,2 l/m 0,03 h 0,10 h 1,2 UV-I 218 W/m 21,3 km/h (4 Bft)
09.05.2014 11:00 14,1 C 13,7 C 76 % 1011,0 hPa 0,0 l/m 0,28 h 0,00 h 1,6 UV-I 317 W/m 20,2 km/h (4 Bft)
09.05.2014 12:00 14,4 C 14,3 C 75 % 1011,2 hPa 0,0 l/m 0,18 h 0,00 h 1,8 UV-I 391 W/m 20,8 km/h (4 Bft)
09.05.2014 13:00 15,1 C 14,4 C 73 % 1011,1 hPa 0,2 l/m 0,28 h 0,20 h 1,5 UV-I 407 W/m 20,5 km/h (4 Bft)
09.05.2014 14:00 15,5 C 13,8 C 73 % 1010,9 hPa 0,0 l/m 0,52 h 0,17 h 2,5 UV-I 560 W/m 22,0 km/h (4 Bft)
09.05.2014 15:00 16,7 C 16,4 C 66 % 1010,7 hPa 0,0 l/m 0,38 h 0,07 h 2,0 UV-I 469 W/m 24,5 km/h (4 Bft)
09.05.2014 16:00 16,4 C 15,5 C 69 % 1010,5 hPa 0,6 l/m 0,48 h 0,30 h 1,7 UV-I 433 W/m 23,9 km/h (4 Bft)
09.05.2014 17:00 13,2 C 11,2 C 88 % 1010,7 hPa 1,0 l/m 0,57 h 0,32 h 0,7 UV-I 296 W/m 16,9 km/h (3 Bft)
09.05.2014 18:00 15,3 C 12,4 C 71 % 1010,4 hPa 0,0 l/m 0,32 h 0,03 h 0,0 UV-I 182 W/m 25,0 km/h (4 Bft)
09.05.2014 19:00 14,0 C 11,4 C 71 % 1011,4 hPa 1,6 l/m 0,00 h 0,30 h 0,0 UV-I 35 W/m 19,3 km/h (3 Bft)
09.05.2014 20:00 10,1 C 8,3 C 92 % 1012,3 hPa 4,8 l/m 0,00 h 0,98 h 0,0 UV-I 10 W/m 10,6 km/h (2 Bft)
09.05.2014 21:00 9,6 C 7,8 C 93 % 1013,5 hPa 1,4 l/m 0,00 h 0,98 h 0,0 UV-I 5 W/m 11,0 km/h (2 Bft)
09.05.2014 22:00 8,9 C 7,6 C 94 % 1014,2 hPa 1,8 l/m 0,00 h 0,80 h 0,0 UV-I 0 W/m 3,3 km/h (1 Bft)
09.05.2014 23:00 9,2 C 8,1 C 96 % 1014,8 hPa 2,2 l/m 0,00 h 0,98 h 0,0 UV-I 0 W/m 5,2 km/h (1 Bft)
10.05.2014 00:00 9,2 C 7,9 C 97 % 1014,5 hPa 2,0 l/m 0,00 h 0,23 h 0,0 UV-I 0 W/m 4,1 km/h (1 Bft)
10.05.2014 01:00 8,7 C 7,2 C 97 % 1014,5 hPa 0,8 l/m 0,00 h 0,03 h 0,0 UV-I 0 W/m 1,7 km/h (1 Bft)
10.05.2014 02:00 8,3 C 6,7 C 96 % 1014,3 hPa 0,0 l/m 0,00 h 0,03 h 0,0 UV-I 0 W/m 1,6 km/h (1 Bft)
10.05.2014 03:00 8,1 C 6,7 C 96 % 1014,2 hPa 0,0 l/m 0,00 h 0,00 h 0,0 UV-I 0 W/m 1,9 km/h (1 Bft)
10.05.2014 04:00 8,1 C 6,7 C 96 % 1014,0 hPa 0,2 l/m 0,00 h 0,00 h 0,0 UV-I 0 W/m 5,1 km/h (1 Bft)
10.05.2014 05:00 8,6 C 7,1 C 95 % 1013,5 hPa 0,0 l/m 0,00 h 0,00 h 0,0 UV-I 7 W/m 7,8 km/h (2 Bft)
10.05.2014 06:00 8,9 C 7,4 C 93 % 1013,2 hPa 0,0 l/m 0,03 h 0,00 h 0,0 UV-I 26 W/m 7,2 km/h (2 Bft)
10.05.2014 07:00 9,6 C 8,3 C 92 % 1013,0 hPa 0,0 l/m 0,00 h 0,00 h 0,0 UV-I 94 W/m 6,5 km/h (2 Bft)
10.05.2014 08:00 10,8 C 9,6 C 88 % 1012,5 hPa 0,0 l/m 0,10 h 0,00 h 0,0 UV-I 148 W/m 10,2 km/h (2 Bft)
10.05.2014 09:00 11,0 C 9,5 C 87 % 1012,2 hPa 0,2 l/m 0,00 h 0,60 h 0,0 UV-I 72 W/m 5,7 km/h (1 Bft)
10.05.2014 10:00 10,6 C 9,3 C 93 % 1011,8 hPa 0,8 l/m 0,00 h 0,97 h 0,0 UV-I 80 W/m 3,5 km/h (1 Bft)
10.05.2014 11:00 10,8 C 9,8 C 96 % 1010,6 hPa 1,0 l/m 0,00 h 0,97 h 0,0 UV-I 95 W/m 9,8 km/h (2 Bft)
10.05.2014 12:00 11,1 C 10,2 C 97 % 1009,5 hPa 1,8 l/m 0,00 h 0,98 h 0,0 UV-I 122 W/m 13,4 km/h (3 Bft)
10.05.2014 13:00 11,6 C 10,6 C 98 % 1008,6 hPa 1,6 l/m 0,00 h 0,98 h 0,0 UV-I 90 W/m 10,2 km/h (2 Bft)
10.05.2014 14:00 12,3 C 11,5 C 97 % 1007,4 hPa 0,4 l/m 0,00 h 0,75 h 0,7 UV-I 196 W/m 15,2 km/h (3 Bft)
10.05.2014 15:00 13,2 C 12,1 C 92 % 1006,5 hPa 0,0 l/m 0,00 h 0,00 h 0,7 UV-I 187 W/m 15,8 km/h (3 Bft)
10.05.2014 16:00 13,1 C 11,4 C 91 % 1005,8 hPa 0,2 l/m 0,00 h 0,57 h 0,0 UV-I 79 W/m 19,0 km/h (3 Bft)
10.05.2014 17:00 12,7 C 11,4 C 95 % 1004,9 hPa 0,2 l/m 0,00 h 0,38 h 0,0 UV-I 118 W/m 17,2 km/h (3 Bft)
10.05.2014 18:00 13,2 C 11,7 C 94 % 1003,9 hPa 0,0 l/m 0,00 h 0,10 h 0,0 UV-I 84 W/m 16,0 km/h (3 Bft)
10.05.2014 19:00 13,6 C 11,8 C 92 % 1003,1 hPa 0,0 l/m 0,13 h 0,25 h 0,0 UV-I 79 W/m 15,9 km/h (3 Bft)
10.05.2014 20:00 13,2 C 11,4 C 93 % 1003,1 hPa 0,0 l/m 0,17 h 0,18 h 0,0 UV-I 38 W/m 14,2 km/h (3 Bft)
10.05.2014 21:00 12,5 C 10,2 C 91 % 1003,2 hPa 0,0 l/m 0,00 h 0,03 h 0,0 UV-I 8 W/m 11,7 km/h (2 Bft)
10.05.2014 22:00 12,1 C 9,4 C 86 % 1003,2 hPa 0,0 l/m 0,00 h 0,00 h 0,0 UV-I 0 W/m 18,4 km/h (3 Bft)
10.05.2014 23:00 11,4 C 8,9 C 82 % 1003,3 hPa 0,0 l/m 0,00 h 0,00 h 0,0 UV-I 0 W/m 16,4 km/h (3 Bft)
11.05.2014 00:00 10,6 C 8,9 C 81 % 1003,4 hPa 0,0 l/m 0,00 h 0,00 h 0,0 UV-I 0 W/m 16,3 km/h (3 Bft)
11.05.2014 01:00 10,7 C 9,2 C 81 % 1003,3 hPa 0,0 l/m 0,00 h 0,00 h 0,0 UV-I 0 W/m 20,1 km/h (4 Bft)
11.05.2014 02:00 10,3 C 8,7 C 82 % 1003,2 hPa 0,0 l/m 0,00 h 0,00 h 0,0 UV-I 0 W/m 16,5 km/h (3 Bft)
11.05.2014 03:00 9,7 C 8,3 C 84 % 1003,0 hPa 0,0 l/m 0,00 h 0,00 h 0,0 UV-I 0 W/m 15,6 km/h (3 Bft)
11.05.2014 04:00 9,8 C 8,3 C 83 % 1002,9 hPa 0,0 l/m 0,00 h 0,00 h 0,0 UV-I 0 W/m 17,7 km/h (3 Bft)
11.05.2014 05:00 9,6 C 8,2 C 83 % 1002,7 hPa 0,0 l/m 0,00 h 0,00 h 0,0 UV-I 6 W/m 17,0 km/h (3 Bft)
11.05.2014 06:00 9,3 C 7,9 C 83 % 1002,5 hPa 0,0 l/m 0,07 h 0,00 h 0,0 UV-I 29 W/m 20,7 km/h (4 Bft)
11.05.2014 07:00 9,8 C 8,8 C 82 % 1002,6 hPa 0,0 l/m 0,03 h 0,00 h 0,0 UV-I 91 W/m 25,9 km/h (4 Bft)
11.05.2014 08:00 10,4 C 9,3 C 80 % 1002,6 hPa 0,0 l/m 0,20 h 0,00 h 0,0 UV-I 172 W/m 26,2 km/h (4 Bft)
11.05.2014 09:00 10,7 C 9,9 C 78 % 1002,8 hPa 0,0 l/m 0,20 h 0,03 h 0,7 UV-I 171 W/m 21,5 km/h (4 Bft)
11.05.2014 10:00 10,5 C 9,4 C 85 % 1003,1 hPa 0,2 l/m 0,43 h 0,58 h 1,1 UV-I 320 W/m 21,3 km/h (4 Bft)
11.05.2014 11:00 12,5 C 12,2 C 72 % 1002,8 hPa 0,0 l/m 0,42 h 0,00 h 1,2 UV-I 417 W/m 25,9 km/h (4 Bft)
11.05.2014 12:00 12,6 C 12,3 C 72 % 1002,8 hPa 0,0 l/m 0,33 h 0,43 h 1,5 UV-I 442 W/m 22,5 km/h (4 Bft)
11.05.2014 13:00 14,0 C 13,8 C 67 % 1002,5 hPa 0,2 l/m 0,42 h 0,00 h 1,6 UV-I 431 W/m 29,2 km/h (5 Bft)
11.05.2014 14:00 14,2 C 13,8 C 68 % 1002,5 hPa 0,0 l/m 0,17 h 0,17 h 1,5 UV-I 364 W/m 18,6 km/h (3 Bft)
11.05.2014 15:00 15,2 C 15,6 C 64 % 1002,5 hPa 0,0 l/m 0,65 h 0,03 h 2,2 UV-I 590 W/m 22,1 km/h (4 Bft)
11.05.2014 16:00 14,0 C 12,8 C 70 % 1003,0 hPa 1,4 l/m 0,15 h 0,33 h 1,1 UV-I 182 W/m 15,4 km/h (3 Bft)
11.05.2014 17:00 11,8 C 10,5 C 89 % 1003,7 hPa 0,6 l/m 0,32 h 0,30 h 0,9 UV-I 273 W/m 17,0 km/h (3 Bft)
11.05.2014 18:00 10,8 C 9,5 C 91 % 1004,3 hPa 0,4 l/m 0,15 h 0,32 h 0,0 UV-I 141 W/m 14,9 km/h (3 Bft)
11.05.2014 19:00 10,8 C 9,2 C 90 % 1004,5 hPa 0,0 l/m 0,00 h 0,00 h 0,0 UV-I 47 W/m 12,8 km/h (3 Bft)
11.05.2014 20:00 10,7 C 8,9 C 88 % 1004,9 hPa 0,0 l/m 0,07 h 0,00 h 0,0 UV-I 19 W/m 9,3 km/h (2 Bft)
11.05.2014 21:00 10,1 C 8,4 C 90 % 1005,5 hPa 1,6 l/m 0,00 h 0,57 h 0,0 UV-I 8 W/m 9,3 km/h (2 Bft)
11.05.2014 22:00 9,4 C 7,8 C 95 % 1005,8 hPa 0,0 l/m 0,00 h 0,03 h 0,0 UV-I 0 W/m 6,6 km/h (2 Bft)
11.05.2014 23:00 9,7 C 7,7 C 90 % 1006,1 hPa 0,0 l/m 0,00 h 0,00 h 0,0 UV-I 0 W/m 8,2 km/h (2 Bft)
Min-Datum _ 05.05.14 05.05.14 05.05.14 11.05.14 - - - - - 05.05.14
_ Min-Zeit 06:18 05:06 16:14 14:14 - - - - - 00:00
Minimum _ 3,4 C 2,2 C 45 % 1002,3 hPa - - - - - 0,0 km/h (0 Bft)
Max-Datum _ 06.05.14 05.05.14 07.05.14 05.05.14 09.05.14 05.05.14 06.05.14 06.05.14 07.05.14 09.05.14
_ Max-Zeit 17:10 15:22 01:16 00:02 20:00 08:16 12:16 15:02 12:56 20:10
Maximum _ 20,7 C 27,8 C 98 % 1020,9 hPa 4,8 l/m 0,03 h 0,03 h 4,1 UV-I 1074 W/m 75,9 km/h
W-SW (9 Bft)
Durchschnitt _ 12,5 C 11,3 C 82 % 1009,7 hPa #43,0 l/m #21:43 h #28:32 h 1,4 UV-I 207 W/m 11,4 km/h (2 Bft)
© 2014 W. Hausmann